Time;durP1;ratioP1;P1;durP2;ratioP2;P2;SDS_P1;SDS_P2;PMS_P1;PMS_P2;Temp;Humidity;BMP_temperature;BMP_pressure;BME280_temperature;BME280_humidity;BME280_pressure;Samples;Min_cycle;Max_cycle;Signal;HPM_P1;HPM_P2
2021/12/31 00:02:22;;;;;;;119.60;72.43;;;77.70;2227.20;;;;;;5116689;28;20019;-90
2021/12/31 00:04:49;;;;;;;115.28;71.63;;;77.20;2227.20;;;;;;5116713;28;20020;-89
2021/12/31 00:07:15;;;;;;;93.22;58.85;;;77.60;2227.20;;;;;;5116585;28;20114;-79
2021/12/31 00:09:41;;;;;;;87.15;54.28;;;77.40;2201.60;;;;;;5115438;28;20102;-83
2021/12/31 00:12:08;;;;;;;85.57;55.45;;;77.40;2227.20;;;;;;5117180;28;20024;-90
2021/12/31 00:14:35;;;;;;;95.82;58.88;;;77.40;2073.60;;;;;;5116387;28;20019;-92
2021/12/31 00:17:01;;;;;;;95.95;59.55;;;77.40;2227.20;;;;;;5116649;28;20023;-89
2021/12/31 00:19:33;;;;;;;101.18;66.15;;;77.10;2227.20;;;;;;5116255;28;20495;-93
2021/12/31 00:22:10;;;;;;;119.63;76.47;;;77.30;2227.20;;;;;;5116166;28;20512;-90
2021/12/31 00:24:36;;;;;;;214.02;117.82;;;77.40;2099.20;;;;;;5116357;28;20474;-91
2021/12/31 00:27:05;;;;;;;223.07;117.65;;;77.30;2099.20;;;;;;5116592;28;20019;-92
2021/12/31 00:29:47;;;;;;;;;;;;;;;;;;;;;
2021/12/31 00:32:13;;;;;;;244.85;133.30;;;77.10;2227.20;;;;;;5117638;27;20011;-91
2021/12/31 00:34:39;;;;;;;283.70;143.15;;;77.40;2227.20;;;;;;5115943;28;20047;-91
2021/12/31 00:37:05;;;;;;;235.90;127.70;;;77.40;2227.20;;;;;;5116632;28;20463;-91
2021/12/31 00:39:31;;;;;;;215.82;106.80;;;77.50;2227.20;;;;;;5116632;28;20022;-90
2021/12/31 00:41:57;;;;;;;183.50;90.38;;;77.40;2227.20;;;;;;5133565;27;20041;-89
2021/12/31 00:44:25;;;;;;;161.07;85.85;;;77.30;2227.20;;;;;;5139861;27;20035;-91
2021/12/31 00:46:53;;;;;;;202.23;91.90;;;77.30;2227.20;;;;;;5120083;27;20028;-90
2021/12/31 00:49:19;;;;;;;88.55;53.83;;;77.30;2227.20;;;;;;5117731;28;20019;-89
2021/12/31 00:51:45;;;;;;;79.47;46.75;;;77.40;2227.20;;;;;;5116117;28;20023;-91
2021/12/31 00:54:13;;;;;;;80.72;48.80;;;77.40;1843.20;;;;;;5116207;28;20110;-88
2021/12/31 00:56:39;;;;;;;83.28;52.05;;;77.30;1996.80;;;;;;5115509;28;20015;-87
2021/12/31 00:59:05;;;;;;;94.70;56.63;;;77.20;2227.20;;;;;;5115118;28;20020;-87
2021/12/31 01:01:32;;;;;;;78.88;47.00;;;77.20;2227.20;;;;;;5115103;28;20023;-87
2021/12/31 01:03:57;;;;;;;71.35;42.65;;;77.10;2227.20;;;;;;5115319;28;20119;-86
2021/12/31 01:06:23;;;;;;;69.70;42.15;;;77.00;2227.20;;;;;;5115162;28;20055;-86
2021/12/31 01:08:49;;;;;;;78.38;45.95;;;76.90;2227.20;;;;;;5115548;28;20098;-86
2021/12/31 01:11:15;;;;;;;95.28;57.72;;;52.10;2227.20;;;;;;5114577;28;20458;-88
2021/12/31 01:13:58;;;;;;;83.85;53.05;;;76.80;2227.20;;;;;;5114440;28;20020;-84
2021/12/31 01:16:34;;;;;;;75.32;44.17;;;76.90;2227.20;;;;;;5114737;28;20020;-88
2021/12/31 01:21:26;;;;;;;77.43;46.78;;;52.10;2227.20;;;;;;5125048;27;20134;-90
2021/12/31 01:23:52;;;;;;;88.20;48.97;;;76.80;2227.20;;;;;;5118236;27;20102;-90
2021/12/31 01:26:18;;;;;;;89.93;51.72;;;76.90;2227.20;;;;;;5118401;27;20047;-90
2021/12/31 01:28:45;;;;;;;116.35;64.43;;;77.00;2227.20;;;;;;5118365;27;20091;-89
2021/12/31 01:31:11;;;;;;;128.70;69.72;;;77.10;2150.40;;;;;;5117329;27;20023;-87
2021/12/31 01:33:37;;;;;;;132.57;73.10;;;77.10;2099.20;;;;;;5118217;27;20126;-90
2021/12/31 01:36:05;;;;;;;124.25;67.30;;;77.20;2227.20;;;;;;5118253;27;20530;-90
2021/12/31 01:38:31;;;;;;;133.65;75.22;;;77.30;2227.20;;;;;;5118271;27;20023;-89
2021/12/31 01:40:57;;;;;;;113.32;66.50;;;77.20;2227.20;;;;;;5117911;27;20027;-88
2021/12/31 01:43:22;;;;;;;100.35;59.13;;;77.20;2227.20;;;;;;5118154;27;20015;-88
2021/12/31 01:45:55;;;;;;;107.88;64.45;;;77.20;2227.20;;;;;;5118161;27;20023;-88
2021/12/31 01:48:48;;;;;;;113.85;67.53;;;77.30;2227.20;;;;;;5117904;27;20359;-89
2021/12/31 01:51:14;;;;;;;113.20;66.07;;;77.30;2227.20;;;;;;5118488;28;20118;-88
2021/12/31 01:53:40;;;;;;;106.43;62.22;;;77.40;2227.20;;;;;;5118142;27;20015;-88
2021/12/31 01:56:07;;;;;;;117.82;64.97;;;77.30;2227.20;;;;;;5117693;27;20492;-88
2021/12/31 01:58:34;;;;;;;92.85;55.80;;;77.30;2227.20;;;;;;5117744;27;20012;-90
2021/12/31 02:01:04;;;;;;;91.00;49.20;;;77.20;2227.20;;;;;;5117766;27;20172;-89
2021/12/31 02:03:32;;;;;;;71.47;42.30;;;77.30;2227.20;;;;;;5117802;27;20022;-89
2021/12/31 02:05:58;;;;;;;78.20;46.40;;;77.40;2227.20;;;;;;5117892;28;20117;-89
2021/12/31 02:08:24;;;;;;;81.28;47.28;;;77.30;1945.60;;;;;;5117686;27;20102;-88
2021/12/31 02:10:51;;;;;;;72.05;43.17;;;77.30;2227.20;;;;;;5117779;28;20031;-88
2021/12/31 02:13:17;;;;;;;73.53;42.60;;;77.10;2227.20;;;;;;5117738;27;20026;-87
2021/12/31 02:15:44;;;;;;;70.53;43.88;;;77.10;2227.20;;;;;;5117476;28;20015;-88
2021/12/31 02:18:10;;;;;;;83.38;51.53;;;77.50;2227.20;;;;;;5117457;27;20015;-91
2021/12/31 02:20:44;;;;;;;95.65;60.78;;;77.10;2227.20;;;;;;5117347;28;20027;-89
2021/12/31 02:23:19;;;;;;;94.28;56.28;;;76.90;2227.20;;;;;;5117905;28;20051;-89
2021/12/31 02:25:45;;;;;;;107.53;64.25;;;77.00;2227.20;;;;;;5117524;28;20046;-88
2021/12/31 02:28:12;;;;;;;162.18;85.18;;;77.10;2227.20;;;;;;5117538;28;20026;-88
2021/12/31 02:30:38;;;;;;;172.02;92.65;;;77.10;2227.20;;;;;;5117553;28;20023;-88
2021/12/31 02:33:04;;;;;;;195.27;107.95;;;77.10;2227.20;;;;;;5117728;28;20038;-89
2021/12/31 02:35:32;;;;;;;113.03;67.45;;;77.00;2227.20;;;;;;5117554;28;20362;-89
2021/12/31 02:37:58;;;;;;;79.60;47.17;;;77.10;2227.20;;;;;;5117411;28;20059;-89
2021/12/31 02:40:25;;;;;;;102.22;57.42;;;77.00;2227.20;;;;;;5117420;28;20050;-89
2021/12/31 02:42:51;;;;;;;118.55;66.25;;;77.40;2227.20;;;;;;5119865;27;20031;-90
2021/12/31 02:45:17;;;;;;;139.05;81.43;;;77.10;2227.20;;;;;;5121384;27;20015;-89
2021/12/31 02:47:45;;;;;;;134.60;79.78;;;77.20;2227.20;;;;;;5121476;27;20026;-89
2021/12/31 02:50:14;;;;;;;147.35;85.40;;;77.20;2227.20;;;;;;5121328;27;20027;-91
2021/12/31 02:52:41;;;;;;;142.02;80.60;;;77.20;2227.20;;;;;;5139691;27;20101;-90
2021/12/31 02:55:07;;;;;;;170.93;83.90;;;77.30;2227.20;;;;;;5121281;27;20023;-88
2021/12/31 02:57:33;;;;;;;168.50;75.60;;;77.30;2227.20;;;;;;5121265;27;20442;-89
2021/12/31 02:59:59;;;;;;;191.27;87.70;;;77.20;2227.20;;;;;;5121163;27;20023;-89
2021/12/31 03:02:27;;;;;;;228.57;100.60;;;77.10;2227.20;;;;;;5121144;27;20038;-90
2021/12/31 03:04:55;;;;;;;218.30;97.68;;;77.20;2227.20;;;;;;5121165;27;20445;-89
2021/12/31 03:07:23;;;;;;;190.75;87.45;;;77.20;2227.20;;;;;;5121325;27;20045;-89
2021/12/31 03:09:50;;;;;;;207.70;96.07;;;77.20;2227.20;;;;;;5121225;27;20019;-89
2021/12/31 03:12:16;;;;;;;238.18;95.55;;;77.20;2227.20;;;;;;5121167;27;20030;-89
2021/12/31 03:14:44;;;;;;;200.75;85.60;;;77.20;2227.20;;;;;;5121223;27;20030;-90
2021/12/31 03:17:11;;;;;;;209.98;94.60;;;77.10;2227.20;;;;;;5120938;27;20045;-89
2021/12/31 03:19:37;;;;;;;180.15;77.18;;;77.10;2227.20;;;;;;5120527;27;20019;-88
2021/12/31 03:22:04;;;;;;;140.07;68.05;;;77.10;2227.20;;;;;;5116891;28;20131;-88
2021/12/31 03:24:30;;;;;;;95.50;46.40;;;76.90;2227.20;;;;;;5117287;28;20388;-89
2021/12/31 03:26:56;;;;;;;102.00;46.22;;;52.00;2227.20;;;;;;5117370;28;20058;-91
2021/12/31 03:29:22;;;;;;;97.55;47.08;;;51.80;2227.20;;;;;;5117183;28;20058;-89
2021/12/31 03:31:48;;;;;;;106.85;52.30;;;51.80;2227.20;;;;;;5117426;28;20073;-89
2021/12/31 03:34:14;;;;;;;112.38;55.15;;;51.70;2227.20;;;;;;5117271;28;20019;-89
2021/12/31 03:36:43;;;;;;;107.90;53.92;;;51.80;2227.20;;;;;;5116953;28;20405;-89
2021/12/31 03:39:10;;;;;;;104.53;51.17;;;51.90;2227.20;;;;;;5117006;28;20378;-89
2021/12/31 03:41:36;;;;;;;108.72;54.08;;;52.00;2227.20;;;;;;5117076;28;20458;-88
2021/12/31 03:44:03;;;;;;;100.75;48.40;;;52.00;2227.20;;;;;;5117061;28;20020;-88
2021/12/31 03:46:29;;;;;;;114.50;52.78;;;52.10;2227.20;;;;;;5116881;28;20043;-87
2021/12/31 03:48:55;;;;;;;135.23;59.83;;;52.10;2227.20;;;;;;5116921;28;20062;-90
2021/12/31 03:51:21;;;;;;;101.72;45.47;;;52.10;2227.20;;;;;;5117282;28;20431;-90
2021/12/31 03:53:47;;;;;;;97.88;43.72;;;52.00;2227.20;;;;;;5116501;28;20362;-90
2021/12/31 03:56:13;;;;;;;73.40;40.40;;;51.90;2227.20;;;;;;5116578;28;20115;-89
2021/12/31 03:58:39;;;;;;;127.43;53.90;;;52.00;2227.20;;;;;;5116780;28;20396;-89
2021/12/31 04:01:04;;;;;;;208.90;89.32;;;52.00;2227.20;;;;;;5116707;28;20019;-89
2021/12/31 04:03:30;;;;;;;237.13;97.43;;;51.90;2227.20;;;;;;5116562;28;20031;-89
2021/12/31 04:05:57;;;;;;;139.73;63.47;;;52.00;2227.20;;;;;;5116825;28;20016;-91
2021/12/31 04:08:22;;;;;;;129.18;62.45;;;52.10;2227.20;;;;;;5116823;28;20033;-91
2021/12/31 04:10:48;;;;;;;137.07;69.90;;;52.10;2227.20;;;;;;5116819;28;20588;-89
2021/12/31 04:13:14;;;;;;;161.00;81.57;;;52.00;2227.20;;;;;;5116673;28;20405;-90
2021/12/31 04:15:41;;;;;;;170.02;70.53;;;52.00;2227.20;;;;;;5118418;27;20030;-90
2021/12/31 04:18:06;;;;;;;162.00;68.30;;;51.80;2227.20;;;;;;5140987;27;20015;-89
2021/12/31 04:23:01;;;;;;;89.85;42.00;;;51.80;2227.20;;;;;;5141254;27;20023;-91
2021/12/31 04:25:27;;;;;;;121.45;47.03;;;51.80;2227.20;;;;;;5119722;27;20064;-89
2021/12/31 04:27:53;;;;;;;85.93;41.55;;;51.60;2227.20;;;;;;5119626;27;20362;-88
2021/12/31 04:30:19;;;;;;;78.43;40.47;;;51.70;2227.20;;;;;;5119301;27;20051;-91
2021/12/31 04:32:45;;;;;;;76.93;42.30;;;51.80;2227.20;;;;;;5119969;27;20106;-89
2021/12/31 04:35:12;;;;;;;86.93;44.50;;;51.80;2227.20;;;;;;5119628;27;20043;-90
2021/12/31 04:37:42;;;;;;;67.90;34.53;;;51.70;2227.20;;;;;;5119288;27;20110;-89
2021/12/31 04:40:12;;;;;;;103.68;40.00;;;51.80;2227.20;;;;;;5119258;27;20066;-89
2021/12/31 04:42:42;;;;;;;107.07;46.20;;;51.60;2227.20;;;;;;5119317;27;20373;-88
2021/12/31 04:45:12;;;;;;;94.95;39.75;;;51.60;2227.20;;;;;;5119426;27;20019;-89
2021/12/31 04:47:39;;;;;;;83.32;40.30;;;51.50;2227.20;;;;;;5119156;27;20031;-90
2021/12/31 04:50:05;;;;;;;91.78;43.90;;;51.50;2227.20;;;;;;5119385;27;20030;-90
2021/12/31 04:52:31;;;;;;;96.18;47.00;;;51.50;2227.20;;;;;;5137102;27;20029;-89
2021/12/31 04:54:57;;;;;;;72.93;37.92;;;51.50;2227.20;;;;;;5118826;27;20023;-89
2021/12/31 04:57:25;;;;;;;80.25;41.08;;;51.50;2227.20;;;;;;5118887;27;20347;-89
2021/12/31 04:59:51;;;;;;;81.03;39.35;;;51.50;2227.20;;;;;;5118888;27;20075;-89
2021/12/31 05:02:17;;;;;;;74.72;36.08;;;51.50;2227.20;;;;;;5118730;27;20026;-89
2021/12/31 05:04:43;;;;;;;70.10;34.88;;;51.50;2227.20;;;;;;5118006;27;20019;-87
2021/12/31 05:07:09;;;;;;;86.35;36.88;;;51.30;2227.20;;;;;;5118794;27;20030;-90
2021/12/31 05:09:35;;;;;;;119.18;39.33;;;26.50;2201.60;;;;;;5118807;27;20045;-89
2021/12/31 05:12:01;;;;;;;89.22;32.75;;;26.40;2201.60;;;;;;5118941;27;20023;-92
2021/12/31 05:14:27;;;;;;;117.50;40.58;;;26.20;2201.60;;;;;;5118554;27;20457;-90
2021/12/31 05:16:53;;;;;;;85.53;39.65;;;26.20;2201.60;;;;;;5118774;27;20041;-90
2021/12/31 05:19:19;;;;;;;101.05;42.70;;;26.30;2201.60;;;;;;5118697;27;20016;-89
2021/12/31 05:21:45;;;;;;;80.13;37.20;;;26.30;2201.60;;;;;;5114877;28;20466;-90
2021/12/31 05:24:10;;;;;;;86.53;39.03;;;26.50;2201.60;;;;;;5114977;28;20072;-92
2021/12/31 05:26:36;;;;;;;89.10;44.15;;;51.20;2227.20;;;;;;5114953;28;20020;-88
2021/12/31 05:29:02;;;;;;;88.72;45.47;;;51.20;2227.20;;;;;;5114896;28;20097;-88
2021/12/31 05:31:29;;;;;;;92.53;45.53;;;51.30;2227.20;;;;;;5115129;28;20434;-88
2021/12/31 05:33:54;;;;;;;95.75;38.15;;;51.30;2227.20;;;;;;5115069;28;20117;-90
2021/12/31 05:36:20;;;;;;;75.93;40.13;;;26.50;2201.60;;;;;;5114854;28;20028;-92
2021/12/31 05:38:46;;;;;;;89.32;44.05;;;26.50;2201.60;;;;;;5114951;28;20119;-91
2021/12/31 05:41:12;;;;;;;95.97;43.15;;;26.50;2201.60;;;;;;5114630;28;20026;-90
2021/12/31 05:43:38;;;;;;;96.63;44.60;;;26.50;2201.60;;;;;;5114703;28;20023;-90
2021/12/31 05:46:04;;;;;;;132.40;61.72;;;26.50;2201.60;;;;;;5114592;28;20069;-90
2021/12/31 05:48:30;;;;;;;177.43;95.63;;;26.50;2201.60;;;;;;5115019;28;20015;-89
2021/12/31 05:50:57;;;;;;;135.00;69.82;;;26.30;2201.60;;;;;;5114698;28;20031;-89
2021/12/31 05:53:23;;;;;;;91.28;46.55;;;51.20;2227.20;;;;;;5114543;28;20446;-93
2021/12/31 05:55:49;;;;;;;84.57;46.83;;;51.20;2227.20;;;;;;5114279;28;20016;-89
2021/12/31 05:58:15;;;;;;;87.68;48.83;;;51.30;2227.20;;;;;;5114584;28;20107;-89
2021/12/31 06:00:41;;;;;;;87.03;50.08;;;51.20;2227.20;;;;;;5114353;28;20064;-90
2021/12/31 06:03:07;;;;;;;114.88;68.20;;;26.50;2201.60;;;;;;5114523;28;20019;-90
2021/12/31 06:05:32;;;;;;;104.25;58.72;;;51.20;2227.20;;;;;;5114464;28;20016;-92
2021/12/31 06:07:59;;;;;;;105.72;61.00;;;26.50;2201.60;;;;;;5114114;28;20367;-92
2021/12/31 06:10:25;;;;;;;91.88;49.78;;;26.50;2201.60;;;;;;5114260;28;20024;-90
2021/12/31 06:12:57;;;;;;;85.68;52.05;;;26.50;2201.60;;;;;;5114339;28;20022;-92
2021/12/31 06:15:23;;;;;;;93.50;51.13;;;51.20;2227.20;;;;;;5114407;28;20476;-90
2021/12/31 06:17:50;;;;;;;91.63;51.20;;;51.30;2227.20;;;;;;5114138;28;20026;-89
2021/12/31 06:20:16;;;;;;;91.68;52.83;;;51.30;2227.20;;;;;;5114387;28;20035;-92
2021/12/31 06:22:41;;;;;;;96.82;55.72;;;51.40;2227.20;;;;;;5114316;28;20557;-89
2021/12/31 06:25:07;;;;;;;79.72;46.70;;;51.40;2227.20;;;;;;5114346;28;20442;-89
2021/12/31 06:27:33;;;;;;;85.95;46.88;;;51.20;2227.20;;;;;;5114208;28;20505;-92
2021/12/31 06:29:59;;;;;;;76.75;46.67;;;26.50;2201.60;;;;;;5114148;28;20024;-90
2021/12/31 06:32:25;;;;;;;86.20;45.53;;;51.20;2227.20;;;;;;5114187;28;20065;-89
2021/12/31 06:34:51;;;;;;;81.22;46.85;;;51.20;2227.20;;;;;;5113887;28;20034;-91
2021/12/31 06:37:17;;;;;;;77.90;42.85;;;51.20;2227.20;;;;;;5114192;28;20446;-92
2021/12/31 06:39:45;;;;;;;90.45;48.03;;;51.20;2227.20;;;;;;5114131;28;20022;-89
2021/12/31 06:42:11;;;;;;;93.75;49.33;;;26.50;2201.60;;;;;;5114271;28;20110;-89
2021/12/31 06:44:38;;;;;;;89.45;47.85;;;26.50;2201.60;;;;;;5114151;28;20110;-89
2021/12/31 06:47:05;;;;;;;95.13;48.15;;;26.50;2201.60;;;;;;5114022;28;20054;-88
2021/12/31 06:49:32;;;;;;;93.80;54.92;;;26.50;2201.60;;;;;;5114052;28;20024;-89
2021/12/31 06:51:58;;;;;;;102.35;54.33;;;51.40;2227.20;;;;;;5114054;28;20038;-90
2021/12/31 06:54:24;;;;;;;109.65;63.15;;;26.50;2201.60;;;;;;5114240;28;20354;-91
2021/12/31 06:56:50;;;;;;;98.18;59.03;;;26.50;2201.60;;;;;;5113930;28;20016;-89
2021/12/31 06:59:15;;;;;;;134.35;82.32;;;51.30;2227.20;;;;;;5113600;28;20107;-90
2021/12/31 07:01:42;;;;;;;115.82;61.83;;;51.30;2227.20;;;;;;5113763;28;20097;-88
2021/12/31 07:04:08;;;;;;;118.20;65.72;;;51.30;2227.20;;;;;;5113858;28;20053;-90
2021/12/31 07:06:34;;;;;;;108.35;64.60;;;51.30;2227.20;;;;;;5113856;28;20020;-90
2021/12/31 07:09:00;;;;;;;141.55;80.82;;;51.50;2227.20;;;;;;5113923;28;20046;-89
2021/12/31 07:11:25;;;;;;;216.32;125.78;;;51.50;2227.20;;;;;;5113397;28;20447;-90
2021/12/31 07:13:51;;;;;;;155.75;98.40;;;51.50;2227.20;;;;;;5114080;28;20111;-90
2021/12/31 07:16:17;;;;;;;163.75;102.22;;;51.70;2227.20;;;;;;5114005;28;20049;-92
2021/12/31 07:18:44;;;;;;;174.60;104.22;;;51.80;2227.20;;;;;;5113993;28;20015;-89
2021/12/31 07:21:10;;;;;;;218.43;126.40;;;51.90;2227.20;;;;;;5113591;28;20070;-91
2021/12/31 07:23:36;;;;;;;251.13;149.32;;;51.90;2227.20;;;;;;5113503;28;20016;-90
2021/12/31 07:26:02;;;;;;;247.30;144.05;;;51.90;2227.20;;;;;;5113855;28;20016;-90
2021/12/31 07:28:28;;;;;;;254.98;155.23;;;51.90;2227.20;;;;;;5115319;28;20020;-90
2021/12/31 07:30:55;;;;;;;188.48;125.47;;;52.00;2227.20;;;;;;5117441;28;20049;-91
2021/12/31 07:33:23;;;;;;;155.55;96.95;;;52.10;2227.20;;;;;;5117485;28;20023;-89
2021/12/31 07:35:51;;;;;;;154.70;93.40;;;52.00;2227.20;;;;;;5117394;28;20019;-90
2021/12/31 07:38:40;;;;;;;144.68;95.05;;;52.00;2227.20;;;;;;5117437;28;20446;-90
2021/12/31 07:41:04;;;;;;;122.88;78.30;;;76.90;2227.20;;;;;;5117560;28;20032;-92
2021/12/31 07:43:30;;;;;;;140.73;87.28;;;76.80;2227.20;;;;;;5117157;28;20093;-90
2021/12/31 07:45:56;;;;;;;156.20;101.40;;;76.90;2227.20;;;;;;5120790;27;20409;-90
2021/12/31 07:48:22;;;;;;;156.80;100.88;;;77.00;2227.20;;;;;;5140281;27;20027;-88
2021/12/31 07:50:49;;;;;;;161.60;102.22;;;77.20;2227.20;;;;;;5124388;27;20031;-90
2021/12/31 07:53:15;;;;;;;125.40;81.47;;;77.20;2227.20;;;;;;5119105;28;20020;-92
2021/12/31 07:55:41;;;;;;;118.22;76.38;;;77.10;2227.20;;;;;;5118053;28;20026;-90
2021/12/31 07:58:06;;;;;;;113.07;68.85;;;77.10;2227.20;;;;;;5116813;28;20032;-84
2021/12/31 08:00:33;;;;;;;126.70;69.13;;;77.10;2227.20;;;;;;5116772;28;20506;-89
2021/12/31 08:03:00;;;;;;;115.88;66.20;;;77.10;2227.20;;;;;;5116679;28;20447;-90
2021/12/31 08:05:27;;;;;;;158.63;90.00;;;77.20;2227.20;;;;;;5116424;28;20048;-90
2021/12/31 08:07:53;;;;;;;208.30;116.53;;;77.20;2227.20;;;;;;5116408;28;20046;-88
2021/12/31 08:10:19;;;;;;;227.45;120.40;;;77.30;2227.20;;;;;;5116797;28;20020;-90
2021/12/31 08:12:46;;;;;;;244.43;132.20;;;77.30;2227.20;;;;;;5116529;28;20027;-89
2021/12/31 08:15:12;;;;;;;173.90;103.35;;;77.50;1996.80;;;;;;5116888;28;20035;-91
2021/12/31 08:17:38;;;;;;;131.63;80.03;;;77.60;2227.20;;;;;;5116539;28;20020;-88
2021/12/31 08:20:04;;;;;;;132.57;80.80;;;102.40;2227.20;;;;;;5116091;28;20672;-87
2021/12/31 08:22:36;;;;;;;124.40;74.95;;;102.40;2227.20;;;;;;5116297;28;20070;-92
2021/12/31 08:25:03;;;;;;;102.80;65.38;;;102.60;2227.20;;;;;;5115794;28;20110;-87
2021/12/31 08:27:29;;;;;;;102.18;65.82;;;102.60;2227.20;;;;;;5115884;28;20023;-90
2021/12/31 08:29:55;;;;;;;106.72;65.85;;;102.60;2227.20;;;;;;5116005;28;20019;-90
2021/12/31 08:32:23;;;;;;;128.52;84.45;;;102.70;2227.20;;;;;;5115802;28;20022;-90
2021/12/31 08:34:49;;;;;;;100.43;63.25;;;102.70;2227.20;;;;;;5116053;28;20024;-89
2021/12/31 08:37:15;;;;;;;100.20;60.42;;;102.80;2227.20;;;;;;5115838;28;20073;-88
2021/12/31 08:39:40;;;;;;;88.05;58.42;;;102.80;2227.20;;;;;;5115805;28;20048;-89
2021/12/31 08:42:06;;;;;;;95.60;60.85;;;102.80;2227.20;;;;;;5115870;28;20514;-90
2021/12/31 08:44:32;;;;;;;89.85;53.33;;;102.90;2227.20;;;;;;5116055;28;20027;-91
2021/12/31 08:46:58;;;;;;;81.30;52.70;;;103.00;2227.20;;;;;;5115624;28;20145;-90
2021/12/31 08:49:24;;;;;;;90.65;61.03;;;103.20;2227.20;;;;;;5115817;28;20068;-91
2021/12/31 08:51:50;;;;;;;103.80;66.45;;;103.10;2227.20;;;;;;5115849;28;20019;-88
2021/12/31 08:54:16;;;;;;;94.40;59.55;;;103.10;2227.20;;;;;;5115398;28;20020;-88
2021/12/31 08:56:43;;;;;;;111.05;73.35;;;103.20;2227.20;;;;;;5115489;28;20034;-92
2021/12/31 08:59:09;;;;;;;131.60;84.00;;;103.30;2227.20;;;;;;5115676;28;20030;-90
2021/12/31 09:01:35;;;;;;;126.63;76.30;;;128.00;2252.80;;;;;;5115608;28;20036;-90
2021/12/31 09:04:01;;;;;;;149.35;88.88;;;103.30;2227.20;;;;;;5115564;28;20016;-89
2021/12/31 09:06:27;;;;;;;117.60;78.65;;;103.30;2227.20;;;;;;5115449;28;20426;-90
2021/12/31 09:08:53;;;;;;;107.85;71.57;;;128.10;2252.80;;;;;;5115233;28;20016;-88
2021/12/31 09:11:21;;;;;;;115.43;74.60;;;128.10;2252.80;;;;;;5115233;28;20034;-91
2021/12/31 09:13:47;;;;;;;100.03;68.03;;;128.30;2252.80;;;;;;5116401;28;20015;-91
2021/12/31 09:16:14;;;;;;;100.13;71.97;;;128.40;2252.80;;;;;;5114449;28;20386;-88
2021/12/31 09:18:40;;;;;;;90.28;61.13;;;128.40;2252.80;;;;;;5114794;28;20016;-90
2021/12/31 09:21:05;;;;;;;88.15;59.72;;;128.50;2252.80;;;;;;5114836;28;20048;-90
2021/12/31 09:23:31;;;;;;;90.57;59.30;;;128.50;2252.80;;;;;;5115013;28;20023;-89
2021/12/31 09:25:58;;;;;;;79.55;52.08;;;128.70;2252.80;;;;;;5115195;28;20019;-90
2021/12/31 09:28:25;;;;;;;74.68;51.45;;;128.70;2073.60;;;;;;5114964;28;20020;-91
2021/12/31 09:30:51;;;;;;;77.45;52.65;;;128.80;1971.20;;;;;;5114717;28;20023;-90
2021/12/31 09:33:17;;;;;;;64.63;43.03;;;128.90;2252.80;;;;;;5114853;28;20038;-89
2021/12/31 09:35:43;;;;;;;70.97;48.97;;;128.90;2252.80;;;;;;5114724;28;20450;-91
2021/12/31 09:38:09;;;;;;;67.68;46.65;;;153.70;2252.80;;;;;;5114635;28;20023;-90
2021/12/31 09:40:39;;;;;;;74.07;51.15;;;153.60;2252.80;;;;;;5114652;28;20031;-88
2021/12/31 09:43:09;;;;;;;66.63;46.80;;;153.60;2252.80;;;;;;5114318;28;20073;-88
2021/12/31 09:45:36;;;;;;;66.57;44.80;;;153.80;2252.80;;;;;;5114614;28;20063;-88
2021/12/31 09:48:09;;;;;;;63.92;42.33;;;153.90;2252.80;;;;;;5114560;28;20038;-87
2021/12/31 09:50:42;;;;;;;;;;;153.90;2252.80;;;;;;5114623;28;20080;-90
2021/12/31 09:53:09;;;;;;;70.60;44.33;;;154.10;2252.80;;;;;;5114406;28;19903;-89
2021/12/31 09:55:35;;;;;;;118.95;73.35;;;154.20;2252.80;;;;;;5114589;28;20122;-87
2021/12/31 09:58:01;;;;;;;82.85;52.80;;;154.20;2252.80;;;;;;5114033;28;20093;-88
2021/12/31 10:00:27;;;;;;;82.35;50.78;;;154.30;2252.80;;;;;;5114164;28;20027;-90
2021/12/31 10:03:35;;;;;;;73.90;49.35;;;154.30;2252.80;;;;;;5114239;28;20023;-89
2021/12/31 10:06:08;;;;;;;72.18;46.65;;;154.30;2252.80;;;;;;5016140;28;20018;-90
2021/12/31 10:08:47;;;;;;;71.45;43.80;;;154.40;2252.80;;;;;;5016412;28;20025;-89
2021/12/31 10:11:21;;;;;;;67.78;42.22;;;154.50;2252.80;;;;;;5077363;28;20032;-88
2021/12/31 10:14:02;;;;;;;66.03;42.90;;;154.50;2252.80;;;;;;5114248;28;20069;-88
2021/12/31 10:16:30;;;;;;;67.50;44.60;;;179.20;2252.80;;;;;;5113993;28;20187;-91
2021/12/31 10:19:23;;;;;;;83.47;54.35;;;179.30;2252.80;;;;;;5114115;28;20024;-88
2021/12/31 10:21:51;;;;;;;71.25;52.67;;;179.40;2252.80;;;;;;5109312;28;20470;-87
2021/12/31 10:24:25;;;;;;;69.90;45.13;;;179.50;2252.80;;;;;;5115217;28;20016;-88
2021/12/31 10:26:53;;;;;;;64.57;44.92;;;179.60;2252.80;;;;;;5114033;28;20023;-88
2021/12/31 10:29:19;;;;;;;58.45;41.75;;;179.60;2252.80;;;;;;5097124;28;20147;-89
2021/12/31 10:31:47;;;;;;;55.05;35.33;;;179.70;2252.80;;;;;;5114059;28;20019;-87
2021/12/31 10:34:32;;;;;;;59.72;42.08;;;179.70;2252.80;;;;;;5113538;28;20020;-88
2021/12/31 10:37:14;;;;;;;52.92;36.42;;;179.60;2252.80;;;;;;5115148;28;20019;-88
2021/12/31 10:39:41;;;;;;;42.80;28.17;;;179.60;2252.80;;;;;;5113749;28;20019;-90
2021/12/31 10:42:09;;;;;;;47.10;28.83;;;179.20;2252.80;;;;;;5113849;28;20077;-89
2021/12/31 10:44:53;;;;;;;53.80;36.92;;;179.60;2252.80;;;;;;5113882;28;20118;-88
2021/12/31 10:47:23;;;;;;;74.40;41.88;;;179.70;2252.80;;;;;;5113597;28;20019;-88
2021/12/31 10:50:03;;;;;;;100.75;46.58;;;179.70;2252.80;;;;;;5113676;28;20020;-87
2021/12/31 10:52:39;;;;;;;64.50;36.63;;;179.90;2252.80;;;;;;5113828;28;20028;-88
2021/12/31 10:57:42;;;;;;;59.67;37.03;;;180.00;2252.80;;;;;;5114839;28;20023;-87
2021/12/31 11:00:10;;;;;;;57.83;39.65;;;179.80;2252.80;;;;;;5113555;28;20127;-91
2021/12/31 11:02:37;;;;;;;125.35;84.47;;;179.90;2252.80;;;;;;5114176;28;20110;-87
2021/12/31 11:05:05;;;;;;;119.25;81.03;;;180.10;2252.80;;;;;;5117714;28;20019;-88
2021/12/31 11:07:31;;;;;;;41.72;29.50;;;204.80;2252.80;;;;;;5118411;28;20054;-88
2021/12/31 11:10:04;;;;;;;41.05;24.80;;;204.90;2252.80;;;;;;5117540;28;20119;-89
2021/12/31 11:12:30;;;;;;;42.15;29.23;;;205.00;2252.80;;;;;;5117226;28;20025;-87
2021/12/31 11:14:57;;;;;;;41.60;25.00;;;205.00;2252.80;;;;;;5121671;28;20016;-88
2021/12/31 11:17:23;;;;;;;40.45;27.92;;;205.00;2252.80;;;;;;5142244;27;20004;-87
2021/12/31 11:19:50;;;;;;;44.63;31.65;;;205.00;2252.80;;;;;;5116699;28;20476;-82
2021/12/31 11:22:28;;;;;;;41.30;28.90;;;205.00;2252.80;;;;;;5117192;28;20043;-89
2021/12/31 11:25:14;;;;;;;39.38;29.20;;;205.10;2252.80;;;;;;5117333;28;20043;-86
2021/12/31 11:27:45;;;;;;;46.65;29.35;;;205.20;2252.80;;;;;;5117200;28;20016;-89
2021/12/31 11:30:42;;;;;;;46.55;30.58;;;205.30;2252.80;;;;;;5117292;28;20038;-90
2021/12/31 11:33:20;;;;;;;41.35;26.88;;;205.20;2252.80;;;;;;5117424;28;20034;-90
2021/12/31 11:36:09;;;;;;;53.55;32.88;;;205.30;2252.80;;;;;;5117308;28;20030;-90
2021/12/31 11:38:37;;;;;;;46.97;32.35;;;205.40;2252.80;;;;;;5117638;28;20367;-90
2021/12/31 11:41:05;;;;;;;34.72;19.55;;;205.60;2252.80;;;;;;5117213;28;20027;-86
2021/12/31 11:43:32;;;;;;;60.70;40.03;;;205.60;2252.80;;;;;;5116704;28;20032;-86
2021/12/31 11:46:15;;;;;;;48.13;34.42;;;230.40;2252.80;;;;;;5116914;28;20054;-90
2021/12/31 11:48:44;;;;;;;45.50;34.70;;;230.70;2252.80;;;;;;5116978;28;20051;-86
2021/12/31 11:51:16;;;;;;;51.42;33.20;;;230.60;2252.80;;;;;;5116708;28;20106;-84
2021/12/31 11:54:00;;;;;;;36.00;28.80;;;230.50;2252.80;;;;;;5116778;28;20443;-86
2021/12/31 11:56:41;;;;;;;41.88;31.13;;;230.40;2252.80;;;;;;5115811;28;20027;-86
2021/12/31 11:59:07;;;;;;;28.55;20.13;;;230.60;2252.80;;;;;;5116612;27;20012;-86
2021/12/31 12:01:43;;;;;;;36.85;23.90;;;230.90;2252.80;;;;;;5116243;28;20127;-88
2021/12/31 12:04:34;;;;;;;30.58;24.38;;;231.00;2252.80;;;;;;5116259;28;20117;-87
2021/12/31 12:07:34;;;;;;;36.85;27.10;;;256.10;2252.80;;;;;;5117524;28;20019;-88
2021/12/31 12:10:00;;;;;;;227.95;124.63;;;256.70;2252.80;;;;;;5116282;28;20446;-87
2021/12/31 12:12:31;;;;;;;46.70;33.33;;;256.70;2252.80;;;;;;5115883;28;20027;-85
2021/12/31 12:14:59;;;;;;;60.88;43.30;;;281.60;2278.40;;;;;;5115915;28;20012;-87